Time;durP1;ratioP1;P1;durP2;ratioP2;P2;SDS_P1;SDS_P2;PMS_P1;PMS_P2;Temp;Humidity;BMP_temperature;BMP_pressure;BME280_temperature;BME280_humidity;BME280_pressure;Samples;Min_cycle;Max_cycle;Signal;HPM_P1;HPM_P2
2021/09/28 00:00:04;;;;;;;585.37;554.23;;;12.00;99.90;;;;;;4344770;33;20187;-66
2021/09/28 00:02:30;;;;;;;568.40;538.40;;;11.90;99.90;;;;;;4331647;33;20236;-67
2021/09/28 00:04:59;;;;;;;588.43;557.63;;;11.90;99.90;;;;;;4341910;33;20168;-66
2021/09/28 00:07:25;;;;;;;587.93;557.50;;;11.90;99.90;;;;;;4345343;33;20612;-67
2021/09/28 00:09:52;;;;;;;597.53;566.43;;;11.90;99.90;;;;;;4347252;33;20220;-67
2021/09/28 00:12:19;;;;;;;583.00;552.37;;;11.90;99.90;;;;;;4348184;33;20607;-65
2021/09/28 00:14:49;;;;;;;579.67;549.20;;;12.00;99.90;;;;;;4348005;33;20172;-66
2021/09/28 00:17:18;;;;;;;611.00;578.50;;;12.00;99.90;;;;;;4348441;33;20184;-66
2021/09/28 00:19:45;;;;;;;613.97;582.03;;;12.00;99.90;;;;;;4348150;33;20149;-66
2021/09/28 00:22:13;;;;;;;623.47;589.70;;;12.10;99.90;;;;;;4349025;33;20156;-65
2021/09/28 00:24:40;;;;;;;609.93;577.57;;;12.10;99.90;;;;;;4348387;33;20588;-65
2021/09/28 00:27:12;;;;;;;626.00;591.83;;;12.10;99.90;;;;;;4348268;33;20216;-66
2021/09/28 00:29:44;;;;;;;588.67;557.43;;;12.20;99.90;;;;;;4347779;33;20171;-65
2021/09/28 00:32:13;;;;;;;592.30;562.23;;;12.20;99.90;;;;;;4348355;33;20472;-67
2021/09/28 00:34:42;;;;;;;597.37;565.97;;;12.20;99.90;;;;;;4348151;33;20454;-65
2021/09/28 00:37:26;;;;;;;561.10;532.63;;;12.20;99.90;;;;;;4348393;33;20149;-67
2021/09/28 00:39:53;;;;;;;552.60;524.60;;;12.10;99.90;;;;;;4348461;33;20149;-66
2021/09/28 00:42:20;;;;;;;579.97;549.73;;;12.00;99.90;;;;;;4348316;33;20159;-66
2021/09/28 00:44:47;;;;;;;564.80;536.17;;;12.00;99.90;;;;;;4348138;33;20141;-66
2021/09/28 00:47:18;;;;;;;587.73;556.63;;;11.90;99.90;;;;;;4347565;33;20145;-66
2021/09/28 00:49:50;;;;;;;583.83;553.40;;;11.90;99.90;;;;;;4348219;33;20149;-66
2021/09/28 00:52:23;;;;;;;580.53;550.43;;;11.80;99.90;;;;;;4347739;33;20215;-66
2021/09/28 00:54:52;;;;;;;568.50;539.87;;;11.80;99.90;;;;;;4347469;33;20446;-67
2021/09/28 00:57:21;;;;;;;568.73;539.23;;;11.70;99.90;;;;;;4348538;33;20151;-67
2021/09/28 00:59:51;;;;;;;578.60;548.80;;;11.70;99.90;;;;;;4346793;33;20683;-66
2021/09/28 01:02:18;;;;;;;587.47;556.33;;;11.70;99.90;;;;;;4347126;33;20569;-68
2021/09/28 01:04:45;;;;;;;596.50;565.67;;;11.70;99.90;;;;;;4347696;33;20163;-66
2021/09/28 01:07:12;;;;;;;594.97;563.37;;;11.70;99.90;;;;;;4347663;33;20175;-67
2021/09/28 01:09:40;;;;;;;566.23;537.47;;;11.60;99.90;;;;;;4348294;33;20636;-67
2021/09/28 01:12:10;;;;;;;560.17;531.13;;;11.60;99.90;;;;;;4347682;33;20651;-66
2021/09/28 01:14:44;;;;;;;584.90;555.07;;;11.60;99.90;;;;;;4347544;33;20489;-66
2021/09/28 01:17:22;;;;;;;567.00;537.47;;;11.60;99.90;;;;;;4349357;33;20215;-66
2021/09/28 01:19:49;;;;;;;545.03;516.87;;;11.60;99.90;;;;;;4349053;33;20618;-66
2021/09/28 01:22:23;;;;;;;566.57;537.70;;;11.50;99.90;;;;;;4347057;33;20176;-67
2021/09/28 01:24:52;;;;;;;550.53;522.47;;;11.50;99.90;;;;;;4346265;33;20208;-68
2021/09/28 01:27:21;;;;;;;557.30;529.10;;;11.40;99.90;;;;;;4347259;33;20493;-66
2021/09/28 01:29:50;;;;;;;569.17;539.77;;;11.40;99.90;;;;;;4348181;33;20149;-65
2021/09/28 01:32:19;;;;;;;557.37;528.50;;;11.40;99.90;;;;;;4347492;33;20186;-66
2021/09/28 01:34:46;;;;;;;560.00;531.47;;;11.40;99.90;;;;;;4347849;33;20173;-66
2021/09/28 01:37:14;;;;;;;594.87;563.53;;;11.30;99.90;;;;;;4348935;33;20522;-65
2021/09/28 01:39:47;;;;;;;568.03;538.73;;;11.30;99.90;;;;;;4347192;33;20188;-65
2021/09/28 01:42:14;;;;;;;555.83;527.27;;;11.30;99.90;;;;;;4348112;33;20431;-65
2021/09/28 01:44:43;;;;;;;562.87;534.43;;;11.30;99.90;;;;;;4347323;33;20172;-66
2021/09/28 01:47:09;;;;;;;546.13;518.87;;;11.30;99.90;;;;;;4347653;33;20645;-65
2021/09/28 01:49:36;;;;;;;576.43;546.83;;;11.20;99.90;;;;;;4347944;33;20175;-65
2021/09/28 01:52:03;;;;;;;593.40;562.33;;;11.20;99.90;;;;;;4346829;33;20161;-65
2021/09/28 01:54:30;;;;;;;560.97;532.37;;;11.20;99.90;;;;;;4348448;33;20152;-66
2021/09/28 01:56:58;;;;;;;553.93;524.87;;;11.20;99.90;;;;;;4335429;33;20229;-66
2021/09/28 01:59:26;;;;;;;579.77;549.37;;;11.20;99.90;;;;;;4346646;33;20181;-66
2021/09/28 02:01:53;;;;;;;587.83;557.67;;;11.20;99.90;;;;;;4346590;33;20222;-66
2021/09/28 02:04:20;;;;;;;585.13;554.93;;;11.20;99.90;;;;;;4348823;33;20138;-67
2021/09/28 02:06:48;;;;;;;570.03;540.70;;;11.10;99.90;;;;;;4346508;33;20145;-67
2021/09/28 02:09:15;;;;;;;589.03;558.10;;;11.10;99.90;;;;;;4348849;33;20608;-67
2021/09/28 02:11:42;;;;;;;575.73;545.97;;;11.10;99.90;;;;;;4346499;33;20167;-66
2021/09/28 02:14:10;;;;;;;586.30;555.43;;;11.10;99.90;;;;;;4346606;33;20219;-66
2021/09/28 02:16:37;;;;;;;574.57;544.23;;;11.00;99.90;;;;;;4346833;33;20215;-66
2021/09/28 02:19:04;;;;;;;563.07;533.90;;;11.00;99.90;;;;;;4347951;33;20624;-67
2021/09/28 02:21:31;;;;;;;564.30;535.20;;;11.00;99.90;;;;;;4348204;33;20157;-65
2021/09/28 02:23:58;;;;;;;550.33;522.90;;;11.00;99.90;;;;;;4348216;33;20179;-65
2021/09/28 02:26:25;;;;;;;573.77;544.37;;;11.00;99.90;;;;;;4348245;33;20637;-65
2021/09/28 02:28:51;;;;;;;575.40;545.57;;;11.00;99.90;;;;;;4345345;33;20216;-66
2021/09/28 02:31:20;;;;;;;576.10;546.67;;;11.00;99.90;;;;;;4346441;33;20202;-65
2021/09/28 02:33:47;;;;;;;538.63;511.10;;;10.90;99.90;;;;;;4347000;33;20531;-66
2021/09/28 02:36:14;;;;;;;542.70;515.57;;;10.90;99.90;;;;;;4348234;33;20164;-65
2021/09/28 02:38:50;;;;;;;545.13;518.20;;;10.80;99.90;;;;;;4347624;33;20168;-66
2021/09/28 02:41:17;;;;;;;569.53;540.77;;;10.80;99.90;;;;;;4346196;33;20148;-65
2021/09/28 02:43:44;;;;;;;569.50;540.27;;;10.90;99.90;;;;;;4345814;33;20147;-66
2021/09/28 02:46:11;;;;;;;559.73;530.83;;;10.90;99.90;;;;;;4346355;33;20187;-65
2021/09/28 02:48:39;;;;;;;586.00;554.93;;;10.90;99.90;;;;;;4338904;33;20171;-66
2021/09/28 02:51:06;;;;;;;554.40;526.43;;;10.90;99.90;;;;;;4346372;33;20223;-66
2021/09/28 02:53:33;;;;;;;589.07;558.73;;;10.80;99.90;;;;;;4345633;33;20220;-67
2021/09/28 02:56:00;;;;;;;575.00;545.57;;;10.80;99.90;;;;;;4345838;33;20210;-64
2021/09/28 02:58:27;;;;;;;569.10;539.77;;;10.80;99.90;;;;;;4345836;33;20171;-65
2021/09/28 03:00:53;;;;;;;554.60;525.97;;;10.80;99.90;;;;;;4345910;33;20199;-65
2021/09/28 03:03:20;;;;;;;555.37;527.27;;;10.80;99.90;;;;;;4346005;33;20584;-65
2021/09/28 03:05:49;;;;;;;543.13;515.57;;;10.80;99.90;;;;;;4347555;33;20175;-65
2021/09/28 03:08:16;;;;;;;563.10;533.83;;;10.80;99.90;;;;;;4347442;33;20144;-65
2021/09/28 03:10:43;;;;;;;537.40;509.57;;;10.70;99.90;;;;;;4345748;33;20152;-65
2021/09/28 03:13:12;;;;;;;574.07;544.43;;;10.70;99.90;;;;;;4347263;33;20170;-65
2021/09/28 03:15:40;;;;;;;554.17;525.87;;;10.70;99.90;;;;;;4345660;33;20228;-65
2021/09/28 03:18:13;;;;;;;543.60;515.90;;;10.70;99.90;;;;;;4345823;33;20173;-65
2021/09/28 03:20:43;;;;;;;536.90;510.37;;;10.70;99.90;;;;;;4346022;33;20149;-65
2021/09/28 03:23:14;;;;;;;558.53;529.80;;;10.60;99.90;;;;;;4345572;33;20521;-66
2021/09/28 03:25:46;;;;;;;544.13;517.03;;;10.60;99.90;;;;;;4345803;33;20164;-66
2021/09/28 03:28:16;;;;;;;515.57;489.73;;;10.60;99.90;;;;;;4345451;33;20180;-65
2021/09/28 03:30:43;;;;;;;521.57;496.00;;;10.60;99.90;;;;;;4347359;33;20249;-66
2021/09/28 03:33:10;;;;;;;548.67;520.47;;;10.50;99.90;;;;;;4345614;33;20199;-66
2021/09/28 03:35:37;;;;;;;544.07;516.43;;;10.50;99.90;;;;;;4346373;33;20478;-66
2021/09/28 03:38:04;;;;;;;545.80;518.23;;;10.50;99.90;;;;;;4344721;33;20616;-64
2021/09/28 03:40:32;;;;;;;544.53;516.30;;;10.50;99.90;;;;;;4345628;33;20175;-65
2021/09/28 03:42:59;;;;;;;544.57;517.03;;;10.50;99.90;;;;;;4345377;33;20229;-65
2021/09/28 03:45:28;;;;;;;536.17;509.37;;;10.50;99.90;;;;;;4343902;33;20561;-65
2021/09/28 03:47:56;;;;;;;551.40;523.43;;;10.50;99.90;;;;;;4344450;33;20157;-65
2021/09/28 03:50:22;;;;;;;535.60;508.80;;;10.50;99.90;;;;;;4347061;33;20145;-65
2021/09/28 03:52:51;;;;;;;537.43;510.37;;;10.50;99.90;;;;;;4345354;33;20151;-66
2021/09/28 03:55:19;;;;;;;540.37;513.17;;;10.40;99.90;;;;;;4345729;33;20156;-65
2021/09/28 03:57:48;;;;;;;558.07;529.30;;;10.40;99.90;;;;;;4344970;33;20153;-65
2021/09/28 04:00:16;;;;;;;554.17;526.47;;;10.40;99.90;;;;;;4346676;33;20198;-65
2021/09/28 04:02:43;;;;;;;553.83;525.70;;;10.40;99.90;;;;;;4346728;33;20254;-65
2021/09/28 04:05:10;;;;;;;552.47;524.93;;;10.40;99.90;;;;;;4346256;33;20636;-65
2021/09/28 04:07:37;;;;;;;519.90;494.13;;;10.40;99.90;;;;;;4345171;33;20175;-65
2021/09/28 04:10:06;;;;;;;535.07;507.63;;;10.40;99.90;;;;;;4346544;33;20179;-66
2021/09/28 04:12:34;;;;;;;531.63;504.60;;;10.30;99.90;;;;;;4345221;33;20587;-65
2021/09/28 04:15:02;;;;;;;528.50;501.50;;;10.30;99.90;;;;;;4345555;33;20173;-64
2021/09/28 04:17:34;;;;;;;544.43;517.00;;;10.30;99.90;;;;;;4346489;33;20154;-65
2021/09/28 04:20:04;;;;;;;521.43;495.30;;;10.40;99.90;;;;;;4344824;33;20153;-66
2021/09/28 04:22:33;;;;;;;515.03;488.73;;;10.30;99.90;;;;;;4345445;33;20158;-66
2021/09/28 04:25:07;;;;;;;547.30;519.80;;;10.30;99.90;;;;;;4345265;33;20137;-65
2021/09/28 04:27:40;;;;;;;546.47;519.03;;;10.30;99.90;;;;;;4345671;33;20231;-65
2021/09/28 04:30:09;;;;;;;537.80;510.57;;;10.40;99.90;;;;;;4345417;33;20145;-65
2021/09/28 04:32:36;;;;;;;538.07;510.80;;;10.30;99.90;;;;;;4344732;33;20203;-65
2021/09/28 04:35:05;;;;;;;523.77;497.33;;;10.30;99.90;;;;;;4346314;33;20164;-66
2021/09/28 04:37:36;;;;;;;515.50;489.87;;;10.30;99.90;;;;;;4345296;33;20470;-65
2021/09/28 04:40:07;;;;;;;536.77;510.23;;;10.30;99.90;;;;;;4344755;33;20183;-67
2021/09/28 04:42:33;;;;;;;508.43;483.10;;;10.30;99.90;;;;;;4343873;33;20156;-65
2021/09/28 04:45:00;;;;;;;519.13;493.03;;;10.30;99.90;;;;;;4343935;33;20218;-68
2021/09/28 04:47:29;;;;;;;529.27;502.30;;;10.20;99.90;;;;;;4343882;33;20250;-66
2021/09/28 04:50:02;;;;;;;522.10;496.23;;;10.30;99.90;;;;;;4343494;33;20152;-65
2021/09/28 04:52:30;;;;;;;526.80;500.17;;;10.30;99.90;;;;;;4342853;33;20310;-67
2021/09/28 04:55:03;;;;;;;533.27;506.87;;;10.30;99.90;;;;;;4344886;33;20172;-65
2021/09/28 04:57:30;;;;;;;525.07;498.70;;;10.30;99.90;;;;;;4346639;33;20195;-65
2021/09/28 05:00:01;;;;;;;557.20;528.93;;;10.20;99.90;;;;;;4347462;33;20179;-65
2021/09/28 05:02:33;;;;;;;516.20;490.50;;;10.20;99.90;;;;;;4343421;33;20145;-65
2021/09/28 05:05:03;;;;;;;537.67;510.20;;;10.20;99.90;;;;;;4344243;33;20237;-65
2021/09/28 05:07:33;;;;;;;513.87;488.60;;;10.30;99.90;;;;;;4347933;33;20171;-64
2021/09/28 05:10:03;;;;;;;494.60;470.23;;;10.30;99.90;;;;;;4341180;33;20608;-65
2021/09/28 05:12:30;;;;;;;499.83;475.73;;;10.20;99.90;;;;;;4347517;33;20165;-67
2021/09/28 05:15:03;;;;;;;523.83;497.53;;;10.20;99.90;;;;;;4343421;33;20208;-66
2021/09/28 05:17:32;;;;;;;510.43;485.60;;;10.10;99.90;;;;;;4346776;33;20182;-66
2021/09/28 05:19:58;;;;;;;517.07;491.77;;;10.10;99.90;;;;;;4347271;33;20152;-65
2021/09/28 05:22:26;;;;;;;525.03;498.53;;;10.20;99.90;;;;;;4346403;33;20165;-65
2021/09/28 05:24:57;;;;;;;540.03;512.73;;;10.10;99.90;;;;;;4334767;33;20153;-66
2021/09/28 05:27:25;;;;;;;530.50;503.67;;;10.10;99.90;;;;;;4343914;33;20188;-65
2021/09/28 05:29:59;;;;;;;518.93;492.93;;;10.20;99.90;;;;;;4337287;32;20160;-65
2021/09/28 05:32:25;;;;;;;515.10;489.37;;;10.10;99.90;;;;;;4340833;33;20179;-66
2021/09/28 05:34:53;;;;;;;495.47;471.17;;;10.10;99.90;;;;;;4345116;33;20171;-66
2021/09/28 05:37:20;;;;;;;508.40;483.67;;;10.20;99.90;;;;;;4345613;33;20214;-65
2021/09/28 05:39:47;;;;;;;518.63;492.97;;;10.10;99.90;;;;;;4344862;33;20149;-65
2021/09/28 05:42:14;;;;;;;509.27;484.07;;;10.10;99.90;;;;;;4345390;33;20149;-65
2021/09/28 05:44:41;;;;;;;525.03;499.27;;;10.10;99.90;;;;;;4345738;33;20297;-64
2021/09/28 05:47:09;;;;;;;501.73;476.73;;;10.10;99.90;;;;;;4347684;33;20191;-63
2021/09/28 05:49:39;;;;;;;514.80;489.53;;;10.20;99.90;;;;;;4346691;33;20227;-65
2021/09/28 05:52:24;;;;;;;508.73;484.27;;;10.10;99.90;;;;;;4346807;33;20153;-68
2021/09/28 05:54:54;;;;;;;522.90;497.57;;;10.10;99.90;;;;;;4344025;33;20202;-66
2021/09/28 05:57:24;;;;;;;508.43;484.00;;;10.20;99.90;;;;;;4345564;33;20191;-65
2021/09/28 05:59:53;;;;;;;493.13;469.13;;;10.20;99.90;;;;;;4344952;33;20525;-66
2021/09/28 06:02:24;;;;;;;494.93;470.93;;;10.20;99.90;;;;;;4346834;32;20188;-66
2021/09/28 06:04:53;;;;;;;494.77;470.57;;;10.20;99.90;;;;;;4336674;33;20180;-67
2021/09/28 06:07:23;;;;;;;493.60;470.07;;;10.20;99.90;;;;;;4338363;33;20184;-66
2021/09/28 06:09:50;;;;;;;506.87;481.93;;;10.30;99.90;;;;;;4340163;33;20149;-67
2021/09/28 06:12:17;;;;;;;472.40;449.00;;;10.30;99.90;;;;;;4344665;33;20226;-65
2021/09/28 06:14:45;;;;;;;483.37;460.03;;;10.30;99.90;;;;;;4343733;33;20152;-66
2021/09/28 06:17:12;;;;;;;466.70;444.70;;;10.30;99.90;;;;;;4346229;33;20155;-66
2021/09/28 06:19:39;;;;;;;505.00;481.13;;;10.40;99.90;;;;;;4347208;33;20592;-65
2021/09/28 06:22:14;;;;;;;526.97;501.43;;;10.40;99.90;;;;;;4348448;33;20153;-64
2021/09/28 06:24:52;;;;;;;505.33;480.43;;;10.40;99.90;;;;;;4348414;33;20479;-65
2021/09/28 06:27:22;;;;;;;507.50;482.20;;;10.40;99.90;;;;;;4339291;33;20155;-66
2021/09/28 06:29:50;;;;;;;532.30;506.30;;;10.50;99.90;;;;;;4342175;33;20148;-65
2021/09/28 06:32:22;;;;;;;531.43;504.83;;;10.50;99.90;;;;;;4345561;33;20469;-65
2021/09/28 06:34:53;;;;;;;527.60;501.80;;;10.60;99.90;;;;;;4345633;33;20171;-65
2021/09/28 06:37:19;;;;;;;518.57;493.07;;;10.60;99.90;;;;;;4344532;33;20176;-65
2021/09/28 06:39:48;;;;;;;553.90;525.97;;;10.70;99.90;;;;;;4344232;33;20152;-65
2021/09/28 06:42:15;;;;;;;546.97;520.27;;;10.70;99.90;;;;;;4339091;33;20446;-66
2021/09/28 06:44:41;;;;;;;553.47;525.83;;;10.80;99.90;;;;;;4339867;33;20214;-66
2021/09/28 06:47:11;;;;;;;539.80;513.23;;;10.90;99.90;;;;;;4346482;33;20216;-65
2021/09/28 06:49:40;;;;;;;527.33;501.43;;;10.90;99.90;;;;;;4342056;32;20178;-65
2021/09/28 06:52:10;;;;;;;509.07;484.17;;;11.00;99.90;;;;;;4355775;33;20255;-66
2021/09/28 06:54:39;;;;;;;512.53;488.23;;;11.10;99.90;;;;;;4357996;33;20227;-65
2021/09/28 06:57:15;;;;;;;496.73;472.97;;;11.10;99.90;;;;;;4348675;33;20163;-66
2021/09/28 06:59:42;;;;;;;498.20;474.43;;;11.20;99.90;;;;;;4346855;33;20466;-67
2021/09/28 07:02:13;;;;;;;505.53;481.03;;;11.20;99.90;;;;;;4346886;33;20157;-67
2021/09/28 07:04:43;;;;;;;520.47;494.60;;;11.20;99.90;;;;;;4347162;33;20439;-65
2021/09/28 07:07:10;;;;;;;492.60;468.93;;;11.30;99.90;;;;;;4342866;33;20223;-65
2021/09/28 07:09:45;;;;;;;493.40;469.57;;;11.40;99.90;;;;;;4340557;33;20216;-65
2021/09/28 07:12:16;;;;;;;502.40;478.73;;;11.50;99.90;;;;;;4358114;32;20254;-65
2021/09/28 07:14:48;;;;;;;524.13;498.67;;;11.50;99.90;;;;;;4357026;32;20150;-66
2021/09/28 07:17:29;;;;;;;510.93;485.70;;;11.60;99.90;;;;;;4347690;33;20152;-66
2021/09/28 07:19:58;;;;;;;479.63;456.70;;;11.70;99.90;;;;;;4349902;32;20541;-66
2021/09/28 07:22:26;;;;;;;478.73;455.83;;;11.80;99.90;;;;;;4351144;33;20153;-65
2021/09/28 07:24:53;;;;;;;506.93;482.40;;;11.90;99.90;;;;;;4347921;32;20160;-66
2021/09/28 07:27:21;;;;;;;498.10;474.20;;;12.00;99.90;;;;;;4344054;33;20722;-65
2021/09/28 07:29:48;;;;;;;504.03;479.33;;;12.00;99.90;;;;;;4348940;33;20169;-66
2021/09/28 07:32:15;;;;;;;503.83;479.27;;;12.10;99.90;;;;;;4344802;33;20216;-65
2021/09/28 07:34:42;;;;;;;525.33;499.20;;;12.30;99.90;;;;;;4345275;33;20278;-66
2021/09/28 07:37:11;;;;;;;521.80;495.20;;;12.40;99.90;;;;;;4345158;32;20175;-66
2021/09/28 07:39:41;;;;;;;502.33;478.80;;;12.50;99.90;;;;;;4334151;33;20188;-66
2021/09/28 07:42:09;;;;;;;525.47;499.57;;;12.60;99.90;;;;;;4330927;33;20172;-65
2021/09/28 07:44:37;;;;;;;521.60;495.67;;;12.70;99.90;;;;;;4330765;33;20146;-65
2021/09/28 07:47:05;;;;;;;498.50;473.90;;;12.80;99.90;;;;;;4332173;33;20168;-66
2021/09/28 07:49:32;;;;;;;530.83;504.63;;;12.80;99.90;;;;;;4330744;33;20227;-65
2021/09/28 07:51:59;;;;;;;511.83;486.57;;;12.90;99.90;;;;;;4330579;33;20512;-65
2021/09/28 07:54:25;;;;;;;536.20;509.43;;;13.00;99.90;;;;;;4330866;33;20157;-66
2021/09/28 07:56:52;;;;;;;522.30;496.07;;;13.20;99.90;;;;;;4331308;33;20195;-65
2021/09/28 07:59:19;;;;;;;554.13;526.87;;;13.30;99.90;;;;;;4331326;33;20500;-65
2021/09/28 08:01:47;;;;;;;534.23;507.00;;;13.40;99.90;;;;;;4331166;33;20161;-65
2021/09/28 08:04:19;;;;;;;547.40;520.13;;;13.50;99.90;;;;;;4330789;33;20150;-65
2021/09/28 08:06:46;;;;;;;545.67;517.63;;;13.60;99.90;;;;;;4330980;33;20149;-66
2021/09/28 08:09:16;;;;;;;503.77;479.27;;;13.70;99.90;;;;;;4331046;33;20146;-66
2021/09/28 08:11:43;;;;;;;538.83;511.90;;;13.90;99.90;;;;;;4331070;33;20440;-65
2021/09/28 08:14:13;;;;;;;540.53;513.40;;;14.10;99.90;;;;;;4331005;33;20192;-65
2021/09/28 08:16:46;;;;;;;525.13;499.57;;;14.30;99.90;;;;;;4331018;33;20141;-66
2021/09/28 08:19:19;;;;;;;525.70;499.70;;;14.40;99.90;;;;;;4332491;33;20618;-66
2021/09/28 08:21:51;;;;;;;523.97;498.50;;;14.40;99.90;;;;;;4330839;33;20166;-65
2021/09/28 08:24:20;;;;;;;488.00;464.50;;;14.50;99.90;;;;;;4330772;33;20221;-65
2021/09/28 08:29:38;;;;;;;495.77;471.93;;;14.70;99.90;;;;;;4330754;33;20152;-66
2021/09/28 08:32:05;;;;;;;495.10;471.47;;;14.80;99.90;;;;;;4334041;33;20188;-65
2021/09/28 08:34:33;;;;;;;506.03;481.67;;;14.90;99.90;;;;;;4334043;33;20178;-65
2021/09/28 08:37:02;;;;;;;501.63;477.27;;;14.90;99.90;;;;;;4334644;33;20553;-65
2021/09/28 08:39:34;;;;;;;487.37;464.30;;;15.00;99.90;;;;;;4333559;33;20187;-65
2021/09/28 08:42:09;;;;;;;456.93;435.73;;;15.10;99.90;;;;;;4333456;33;20175;-65
2021/09/28 08:44:38;;;;;;;474.90;452.37;;;15.20;99.90;;;;;;4333648;33;20156;-65
2021/09/28 08:47:07;;;;;;;470.43;448.27;;;15.30;99.90;;;;;;4335213;33;20153;-64
2021/09/28 08:49:37;;;;;;;474.87;452.67;;;15.40;99.90;;;;;;4333489;33;20606;-65
2021/09/28 08:52:05;;;;;;;490.43;467.43;;;15.50;99.90;;;;;;4333947;33;20163;-64
2021/09/28 08:54:35;;;;;;;501.67;477.57;;;15.50;99.90;;;;;;4333267;33;20204;-65
2021/09/28 08:57:02;;;;;;;462.53;440.67;;;15.60;99.90;;;;;;4333567;33;20635;-65
2021/09/28 08:59:40;;;;;;;489.30;465.37;;;15.70;99.90;;;;;;4334804;33;20175;-65
2021/09/28 09:02:09;;;;;;;485.63;462.30;;;15.80;99.90;;;;;;4333934;33;20185;-63
2021/09/28 09:04:37;;;;;;;491.37;467.93;;;15.90;99.90;;;;;;4333377;33;20221;-63
2021/09/28 09:07:23;;;;;;;459.30;437.97;;;16.00;99.90;;;;;;4334954;33;20146;-64
2021/09/28 09:09:52;;;;;;;459.63;438.33;;;16.10;99.90;;;;;;4332717;33;20177;-65
2021/09/28 09:12:32;;;;;;;441.07;420.87;;;16.10;99.90;;;;;;4333442;33;20154;-65
2021/09/28 09:15:28;;;;;;;422.23;402.83;;;16.20;99.90;;;;;;4333066;33;20145;-65
2021/09/28 09:18:01;;;;;;;437.03;416.53;;;16.40;99.90;;;;;;4334412;33;20150;-64
2021/09/28 09:20:33;;;;;;;436.20;416.00;;;16.50;99.90;;;;;;4334592;33;20459;-65
2021/09/28 09:23:25;;;;;;;411.07;391.87;;;16.70;99.90;;;;;;4334696;33;20521;-65
2021/09/28 09:26:27;;;;;;;426.50;406.77;;;16.80;99.90;;;;;;4332917;33;20204;-65
2021/09/28 09:28:58;;;;;;;396.67;378.90;;;16.80;99.90;;;;;;4334169;33;20152;-66
2021/09/28 09:31:31;;;;;;;388.60;371.27;;;16.90;99.90;;;;;;4332998;33;20157;-65
2021/09/28 09:34:08;;;;;;;379.13;362.63;;;16.90;99.90;;;;;;4332944;33;20196;-65
2021/09/28 09:36:41;;;;;;;375.73;359.03;;;16.90;99.90;;;;;;4333757;33;20485;-65
2021/09/28 09:39:11;;;;;;;396.13;378.70;;;17.00;99.90;;;;;;4334488;33;20153;-65
2021/09/28 09:41:47;;;;;;;372.53;355.83;;;16.90;99.90;;;;;;4332324;33;20168;-65
2021/09/28 09:44:19;;;;;;;389.07;371.40;;;16.90;99.90;;;;;;4334486;33;20138;-64
2021/09/28 09:46:54;;;;;;;371.37;355.17;;;16.90;99.90;;;;;;4332643;33;20145;-64
2021/09/28 09:49:23;;;;;;;388.67;371.27;;;16.90;99.90;;;;;;4332704;33;20175;-64
2021/09/28 09:51:53;;;;;;;339.93;325.07;;;17.00;99.90;;;;;;4334251;33;20613;-65
2021/09/28 09:54:34;;;;;;;337.57;323.20;;;17.10;99.90;;;;;;4332566;33;20258;-65
2021/09/28 09:57:06;;;;;;;339.43;324.80;;;17.10;99.90;;;;;;4332829;33;20581;-65
2021/09/28 09:59:33;;;;;;;342.27;327.43;;;17.20;99.90;;;;;;4332624;33;20477;-65
2021/09/28 10:02:10;;;;;;;337.07;322.60;;;17.30;99.90;;;;;;4332714;33;20171;-65
2021/09/28 10:04:41;;;;;;;320.70;306.90;;;17.40;99.90;;;;;;4334007;33;20141;-65
2021/09/28 10:07:15;;;;;;;340.30;325.80;;;17.40;99.90;;;;;;4333727;33;20161;-65
2021/09/28 10:09:53;;;;;;;314.57;300.67;;;17.40;99.90;;;;;;4332461;33;20144;-65
2021/09/28 10:12:20;;;;;;;292.80;280.40;;;17.40;99.90;;;;;;4333124;33;20149;-65
2021/09/28 10:14:47;;;;;;;302.50;289.47;;;17.50;99.90;;;;;;4332366;33;20137;-65
2021/09/28 10:17:39;;;;;;;267.70;256.00;;;17.60;99.90;;;;;;4333595;33;20172;-64
2021/09/28 10:20:09;;;;;;;242.40;231.43;;;17.60;99.90;;;;;;4333143;33;20141;-65
2021/09/28 10:22:55;;;;;;;253.07;241.93;;;17.50;99.90;;;;;;4332731;33;20175;-65
2021/09/28 10:25:36;;;;;;;235.63;225.70;;;17.60;99.90;;;;;;4332274;33;20163;-65
2021/09/28 10:28:31;;;;;;;225.20;215.50;;;17.60;99.90;;;;;;4332602;33;20192;-65
2021/09/28 10:31:11;;;;;;;201.70;192.70;;;17.70;99.90;;;;;;4286494;33;20490;-65
2021/09/28 10:34:05;;;;;;;188.10;179.40;;;17.70;99.90;;;;;;4286534;33;20146;-64
2021/09/28 10:36:53;;;;;;;163.87;156.13;;;17.70;99.90;;;;;;4287364;33;20253;-64
2021/09/28 10:39:44;;;;;;;145.23;139.03;;;17.80;99.90;;;;;;4286108;33;20564;-64
2021/09/28 10:42:32;;;;;;;144.40;138.00;;;17.80;99.90;;;;;;4285785;33;20179;-64
2021/09/28 10:44:59;;;;;;;137.93;131.23;;;17.80;99.90;;;;;;4286071;33;20157;-63
2021/09/28 10:47:48;;;;;;;136.33;128.97;;;17.90;99.90;;;;;;4286369;33;20217;-65
2021/09/28 10:50:34;;;;;;;120.77;115.10;;;18.10;99.90;;;;;;4286201;33;20555;-66
2021/09/28 10:53:04;;;;;;;116.43;110.73;;;18.10;99.90;;;;;;4286384;33;20522;-66
2021/09/28 10:55:54;;;;;;;106.80;102.00;;;18.30;99.90;;;;;;4286099;33;20226;-65
2021/09/28 10:58:25;;;;;;;95.93;91.40;;;18.40;99.90;;;;;;4286318;33;20483;-65
2021/09/28 11:01:16;;;;;;;76.27;72.40;;;18.40;99.90;;;;;;4285880;33;20158;-63
2021/09/28 11:04:01;;;;;;;76.03;72.10;;;18.50;99.90;;;;;;4287473;33;20711;-64
2021/09/28 11:07:09;;;;;;;70.80;66.97;;;18.60;99.90;;;;;;4286657;33;20216;-64
2021/09/28 11:09:54;;;;;;;65.17;61.40;;;18.70;99.90;;;;;;4333327;33;20145;-66
2021/09/28 11:12:26;;;;;;;58.37;54.97;;;18.60;99.90;;;;;;4332020;33;20188;-65
2021/09/28 11:15:01;;;;;;;61.97;58.53;;;18.60;99.90;;;;;;4331533;33;20175;-65
2021/09/28 11:17:35;;;;;;;54.57;51.90;;;18.70;99.90;;;;;;4331520;33;20199;-65
2021/09/28 11:20:22;;;;;;;51.70;48.90;;;18.80;99.90;;;;;;4332131;33;20183;-65
2021/09/28 11:22:54;;;;;;;43.63;41.40;;;18.70;99.90;;;;;;4331365;33;20447;-65
2021/09/28 11:25:21;;;;;;;43.23;40.67;;;18.90;99.90;;;;;;4331638;33;20179;-64
2021/09/28 11:28:02;;;;;;;42.83;40.40;;;19.10;99.90;;;;;;4331532;33;20145;-65
2021/09/28 11:30:33;;;;;;;43.90;41.50;;;19.00;99.90;;;;;;4331290;33;20228;-66
2021/09/28 11:33:04;;;;;;;42.80;40.47;;;18.90;99.90;;;;;;4331197;33;20152;-66
2021/09/28 11:35:42;;;;;;;40.80;38.20;;;19.10;99.90;;;;;;4332358;33;20208;-67
2021/09/28 11:38:15;;;;;;;38.90;36.60;;;19.30;99.90;;;;;;4332823;33;20149;-64
2021/09/28 11:40:51;;;;;;;36.87;34.03;;;19.20;99.90;;;;;;4332701;33;20166;-64
2021/09/28 11:43:21;;;;;;;30.13;28.60;;;19.10;99.90;;;;;;4325938;33;20216;-65
2021/09/28 11:45:57;;;;;;;27.53;25.60;;;19.00;99.90;;;;;;4330940;33;20601;-65
2021/09/28 11:48:26;;;;;;;27.23;25.47;;;19.00;99.90;;;;;;4332645;33;20467;-65
2021/09/28 11:50:54;;;;;;;26.83;25.00;;;19.20;99.90;;;;;;4331048;33;20602;-65
2021/09/28 11:53:21;;;;;;;26.07;24.70;;;19.40;99.90;;;;;;4331085;33;20154;-65
2021/09/28 11:55:48;;;;;;;26.43;24.80;;;19.60;99.90;;;;;;4331088;33;20175;-64
2021/09/28 11:58:21;;;;;;;26.70;24.83;;;20.00;99.90;;;;;;4331770;33;20220;-65
2021/09/28 12:00:49;;;;;;;25.37;23.77;;;20.00;99.90;;;;;;4345830;33;20145;-65
2021/09/28 12:03:23;;;;;;;25.47;23.57;;;20.00;99.90;;;;;;4339804;33;20145;-64
2021/09/28 12:06:07;;;;;;;19.90;18.43;;;19.90;99.90;;;;;;4345150;33;20210;-65
2021/09/28 12:08:37;;;;;;;25.77;24.13;;;19.70;99.40;;;;;;4345776;33;20194;-65
2021/09/28 12:11:06;;;;;;;25.00;23.17;;;19.40;99.90;;;;;;4345403;33;20196;-65
2021/09/28 12:13:53;;;;;;;29.30;27.50;;;19.40;99.90;;;;;;4345670;33;20330;-64
2021/09/28 12:16:22;;;;;;;26.43;24.70;;;19.30;99.90;;;;;;4345492;33;20148;-64
2021/09/28 12:19:04;;;;;;;29.73;27.67;;;19.20;99.90;;;;;;4345589;33;20612;-65
2021/09/28 12:21:31;;;;;;;29.37;27.77;;;18.90;99.90;;;;;;4340804;33;20163;-65
2021/09/28 12:24:23;;;;;;;26.97;25.40;;;18.90;99.90;;;;;;4344869;33;20596;-65
2021/09/28 12:26:50;;;;;;;25.17;23.67;;;18.90;99.90;;;;;;4342352;33;20169;-65
2021/09/28 12:29:35;;;;;;;25.70;23.77;;;18.90;99.90;;;;;;4345299;33;20173;-65
2021/09/28 12:32:07;;;;;;;23.97;22.47;;;19.00;99.90;;;;;;4344178;33;20215;-64